createdAt,value
2022-09-25T00:02:45.194Z,2.70
2022-09-25T00:08:11.036Z,3.25
2022-09-25T00:13:37.517Z,3.70
2022-09-25T00:19:19.699Z,3.47
2022-09-25T00:24:43.998Z,3.08
2022-09-25T00:30:11.292Z,3.47
2022-09-25T00:35:35.858Z,3.63
2022-09-25T00:41:00.470Z,3.78
2022-09-25T00:46:31.703Z,3.72
2022-09-25T00:52:00.649Z,4.18
2022-09-25T00:57:30.434Z,4.97
2022-09-25T01:02:58.919Z,4.87
2022-09-25T01:08:27.844Z,4.53
2022-09-25T01:13:55.373Z,4.30
2022-09-25T01:19:32.429Z,4.28
2022-09-25T01:25:09.701Z,3.10
2022-09-25T01:30:39.422Z,4.35
2022-09-25T01:36:16.111Z,4.72
2022-09-25T01:41:46.291Z,4.68
2022-09-25T01:47:23.345Z,4.47
2022-09-25T01:52:53.473Z,3.85
2022-09-25T01:58:24.321Z,3.80
2022-09-25T02:03:56.378Z,5.50
2022-09-25T02:09:29.208Z,4.00
2022-09-25T02:15:00.716Z,3.60
2022-09-25T02:20:34.429Z,2.60
2022-09-25T02:26:04.653Z,3.90
2022-09-25T02:31:35.782Z,4.03
2022-09-25T02:37:02.297Z,3.58
2022-09-25T02:42:39.641Z,3.60
2022-09-25T02:48:13.051Z,3.13
2022-09-25T02:53:44.269Z,3.30
2022-09-25T02:59:15.816Z,3.20
2022-09-25T03:04:42.284Z,3.50
2022-09-25T03:10:09.236Z,3.45
2022-09-25T03:15:37.163Z,3.53
2022-09-25T03:21:01.312Z,3.05
2022-09-25T03:26:28.365Z,3.08
2022-09-25T03:31:52.339Z,2.88
2022-09-25T03:37:16.905Z,2.65
2022-09-25T03:42:44.071Z,3.17
2022-09-25T03:48:08.014Z,2.83
2022-09-25T03:53:33.455Z,2.72
2022-09-25T03:58:59.313Z,2.70
2022-09-25T04:04:23.893Z,2.72
2022-09-25T04:09:48.314Z,2.83
2022-09-25T04:15:15.344Z,3.33
2022-09-25T04:20:40.069Z,3.08
2022-09-25T04:26:05.092Z,3.40
2022-09-25T04:31:34.094Z,3.13
2022-09-25T04:36:58.264Z,3.17
2022-09-25T04:42:25.255Z,3.28
2022-09-25T04:47:50.636Z,2.78
2022-09-25T04:53:15.219Z,2.35
2022-09-25T04:58:40.117Z,2.47
2022-09-25T05:04:08.878Z,2.33
2022-09-25T05:09:33.607Z,2.60
2022-09-25T05:14:57.808Z,2.28
2022-09-25T05:20:23.467Z,2.35
2022-09-25T05:25:52.930Z,2.72
2022-09-25T05:31:16.849Z,2.83
2022-09-25T05:36:42.107Z,2.05
2022-09-25T05:42:07.054Z,2.60
2022-09-25T05:47:31.097Z,2.00
2022-09-25T05:53:00.169Z,2.15
2022-09-25T05:58:25.931Z,2.35
2022-09-25T06:03:50.152Z,2.35
2022-09-25T06:09:15.703Z,2.60
2022-09-25T06:14:41.044Z,2.35
2022-09-25T06:20:08.838Z,2.03
2022-09-25T06:25:37.755Z,2.67
2022-09-25T06:31:04.312Z,4.15
2022-09-25T06:36:29.128Z,3.25
2022-09-25T06:41:54.984Z,3.90
2022-09-25T06:47:23.528Z,5.25
2022-09-25T06:52:51.641Z,5.13
2022-09-25T06:58:20.724Z,4.53
2022-09-25T07:03:49.169Z,4.47
2022-09-25T07:09:13.132Z,4.57
2022-09-25T07:14:38.786Z,3.45
2022-09-25T07:20:03.569Z,4.40
2022-09-25T07:25:29.630Z,4.35
2022-09-25T07:30:55.508Z,4.32
2022-09-25T07:36:20.908Z,4.47
2022-09-25T07:41:44.821Z,2.53
2022-09-25T07:47:15.124Z,2.95
2022-09-25T07:52:40.060Z,1.63
2022-09-25T07:58:04.157Z,2.20
2022-09-25T08:03:30.560Z,2.05
2022-09-25T08:08:55.840Z,1.70
2022-09-25T08:14:24.518Z,1.73
2022-09-25T08:19:52.397Z,2.05
2022-09-25T08:25:17.143Z,1.73
2022-09-25T08:30:43.664Z,2.40
2022-09-25T08:36:10.309Z,1.30
2022-09-25T08:41:46.149Z,1.38
2022-09-25T08:47:37.579Z,1.38
2022-09-25T08:53:08.533Z,1.40
2022-09-25T08:58:36.070Z,1.95
2022-09-25T09:04:06.249Z,1.95
2022-09-25T09:09:36.717Z,1.67
2022-09-25T09:15:16.906Z,1.85
2022-09-25T09:20:50.029Z,2.50
2022-09-25T09:26:22.474Z,1.40
2022-09-25T09:31:56.796Z,1.58
2022-09-25T09:37:31.706Z,1.85
2022-09-25T09:43:12.673Z,2.15
2022-09-25T09:48:41.945Z,2.45
2022-09-25T09:54:12.685Z,1.55
2022-09-25T09:59:47.045Z,3.08
2022-09-25T10:05:19.290Z,1.90
2022-09-25T10:10:47.454Z,2.45
2022-09-25T10:16:16.119Z,1.75
2022-09-25T10:21:44.302Z,2.03
2022-09-25T10:27:23.830Z,2.00
2022-09-25T10:33:01.011Z,1.80
2022-09-25T10:38:37.574Z,1.60
2022-09-25T10:44:03.487Z,2.13
2022-09-25T10:49:47.236Z,2.03
2022-09-25T10:55:16.530Z,1.60
2022-09-25T11:00:44.577Z,2.20
2022-09-25T11:06:21.084Z,2.60
2022-09-25T11:11:49.427Z,1.30
2022-09-25T11:17:33.238Z,1.40
2022-09-25T11:23:15.116Z,1.10
2022-09-25T11:28:49.982Z,1.40
2022-09-25T11:34:23.896Z,1.70
2022-09-25T11:40:15.663Z,1.00
2022-09-25T11:45:44.385Z,1.38
2022-09-25T11:51:14.642Z,1.75
2022-09-25T11:56:47.072Z,1.85
2022-09-25T12:02:22.395Z,2.70
2022-09-25T12:08:03.704Z,5.05
2022-09-25T12:13:39.722Z,3.47
2022-09-25T12:19:14.228Z,2.63
2022-09-25T12:24:53.207Z,2.17
2022-09-25T12:30:24.605Z,2.53
2022-09-25T12:35:54.122Z,1.60
2022-09-25T12:41:27.147Z,1.20
2022-09-25T12:46:59.025Z,1.23
2022-09-25T12:52:27.057Z,1.67
2022-09-25T12:58:01.505Z,1.43
2022-09-25T13:03:48.607Z,1.58
2022-09-25T13:09:23.749Z,1.70
2022-09-25T13:14:54.185Z,2.72
2022-09-25T13:20:52.567Z,4.28
2022-09-25T13:26:20.428Z,2.90
2022-09-25T13:31:47.562Z,5.35
2022-09-25T13:37:16.243Z,3.63
2022-09-25T13:42:44.180Z,4.03
2022-09-25T13:48:12.550Z,3.10
2022-09-25T13:53:59.161Z,5.50
2022-09-25T13:59:45.316Z,3.00
2022-09-25T14:05:17.077Z,2.53
2022-09-25T14:10:48.331Z,2.35
2022-09-25T14:16:26.058Z,4.03
2022-09-25T14:21:51.785Z,7.63
2022-09-25T14:27:23.077Z,9.18
2022-09-25T14:33:01.193Z,8.15
2022-09-25T14:38:43.855Z,3.33
2022-09-25T14:44:39.486Z,2.78
2022-09-25T14:50:05.151Z,4.20
2022-09-25T14:55:36.461Z,6.40
2022-09-25T15:01:15.097Z,6.07
2022-09-25T15:06:41.022Z,6.32
2022-09-25T15:12:17.993Z,6.07
2022-09-25T15:17:50.984Z,2.88
2022-09-25T15:23:19.488Z,2.60
2022-09-25T15:28:43.956Z,2.55
2022-09-25T15:34:14.324Z,2.45
2022-09-25T15:39:42.926Z,2.10
2022-09-25T15:45:44.703Z,2.33
2022-09-25T15:51:18.688Z,3.55
2022-09-25T15:56:48.918Z,3.67
2022-09-25T16:02:39.123Z,2.60
2022-09-25T16:08:29.461Z,3.63
2022-09-25T16:13:55.000Z,4.15
2022-09-25T16:19:30.705Z,4.50
2022-09-25T16:24:57.287Z,4.22
2022-09-25T16:30:24.011Z,4.15
2022-09-25T16:36:12.619Z,3.10
2022-09-25T16:41:36.357Z,3.40
2022-09-25T16:47:16.591Z,3.22
2022-09-25T16:52:45.153Z,3.50
2022-09-25T16:58:11.557Z,2.92
2022-09-25T17:03:50.042Z,3.97
2022-09-25T17:09:17.983Z,4.13
2022-09-25T17:14:43.948Z,4.82
2022-09-25T17:20:11.944Z,5.05
2022-09-25T17:25:45.061Z,6.37
2022-09-25T17:31:14.804Z,6.13
2022-09-25T17:36:38.793Z,5.28
2022-09-25T17:42:03.746Z,5.40
2022-09-25T17:47:31.004Z,5.30
2022-09-25T17:52:56.273Z,4.95
2022-09-25T17:58:25.020Z,6.07
2022-09-25T18:03:50.845Z,4.95
2022-09-25T18:09:14.986Z,3.65
2022-09-25T18:14:39.526Z,3.95
2022-09-25T18:20:23.422Z,4.00
2022-09-25T18:25:50.817Z,3.67
2022-09-25T18:31:16.804Z,4.20
2022-09-25T18:36:43.209Z,3.72
2022-09-25T18:42:07.801Z,4.32
2022-09-25T18:47:31.955Z,4.85
2022-09-25T18:52:58.712Z,4.05
2022-09-25T18:58:23.475Z,3.95
2022-09-25T19:03:51.933Z,4.80
2022-09-25T19:09:18.133Z,5.32
2022-09-25T19:14:43.869Z,4.00
2022-09-25T19:20:08.946Z,4.22
2022-09-25T19:25:35.500Z,4.50
2022-09-25T19:31:00.406Z,4.05
2022-09-25T19:36:26.522Z,4.38
2022-09-25T19:41:52.852Z,4.70
2022-09-25T19:47:17.846Z,3.75
2022-09-25T19:52:44.145Z,3.80
2022-09-25T19:58:12.304Z,3.03
2022-09-25T20:03:36.920Z,3.70
2022-09-25T20:09:03.464Z,3.35
2022-09-25T20:14:29.168Z,3.45
2022-09-25T20:19:53.840Z,2.90
2022-09-25T20:25:18.255Z,3.75
2022-09-25T20:30:43.895Z,3.58
2022-09-25T20:36:11.111Z,3.28
2022-09-25T20:41:36.443Z,3.00
2022-09-25T20:47:02.260Z,3.08
2022-09-25T20:52:29.129Z,3.13
2022-09-25T20:57:55.377Z,2.55
2022-09-25T21:03:21.378Z,2.80
2022-09-25T21:08:46.909Z,3.03
2022-09-25T21:14:15.160Z,2.78
2022-09-25T21:19:42.048Z,2.80
2022-09-25T21:25:07.918Z,3.25
2022-09-25T21:30:33.499Z,2.72
2022-09-25T21:35:59.772Z,3.50
2022-09-25T21:41:27.616Z,3.45
2022-09-25T21:46:52.797Z,3.30
2022-09-25T21:52:20.115Z,3.30
2022-09-25T21:57:44.700Z,2.92
2022-09-25T22:03:10.938Z,3.20
2022-09-25T22:08:41.933Z,2.65
2022-09-25T22:14:08.959Z,2.90
2022-09-25T22:19:36.609Z,3.28
2022-09-25T22:25:02.574Z,3.08
2022-09-25T22:30:27.280Z,3.00
2022-09-25T22:35:59.817Z,3.35
2022-09-25T22:41:26.246Z,2.88
2022-09-25T22:46:50.812Z,2.80
2022-09-25T22:52:15.794Z,2.60
2022-09-25T22:57:41.837Z,2.75
2022-09-25T23:03:06.854Z,3.00
2022-09-25T23:08:33.156Z,2.72
2022-09-25T23:14:01.894Z,2.85
2022-09-25T23:19:27.225Z,2.95
2022-09-25T23:24:51.955Z,2.47
2022-09-25T23:30:18.669Z,2.70
2022-09-25T23:35:43.676Z,1.90
2022-09-25T23:41:15.302Z,2.53
2022-09-25T23:46:44.178Z,2.60
2022-09-25T23:52:08.949Z,2.38
2022-09-25T23:57:37.567Z,2.35
